sensor_id;sensor_type;location;lat;lon;timestamp;pressure;altitude;pressure_sealevel;temperature;humidity
10115;BME280;5097;43.260;27.812;2023-03-20T00:02:46;100639.56;;;7.90;81.16
10115;BME280;5097;43.260;27.812;2023-03-20T00:05:30;100668.06;;;8.04;82.42
10115;BME280;5097;43.260;27.812;2023-03-20T00:08:15;100661.31;;;7.95;82.74
10115;BME280;5097;43.260;27.812;2023-03-20T00:10:59;100664.78;;;7.70;85.13
10115;BME280;5097;43.260;27.812;2023-03-20T00:13:44;100670.41;;;7.58;85.20
10115;BME280;5097;43.260;27.812;2023-03-20T00:16:31;100626.22;;;7.69;83.01
10115;BME280;5097;43.260;27.812;2023-03-20T00:19:16;100653.94;;;8.07;82.25
10115;BME280;5097;43.260;27.812;2023-03-20T00:22:01;100613.44;;;7.85;82.40
10115;BME280;5097;43.260;27.812;2023-03-20T00:24:45;100629.25;;;8.11;81.89
10115;BME280;5097;43.260;27.812;2023-03-20T00:27:29;100617.22;;;7.77;82.69
10115;BME280;5097;43.260;27.812;2023-03-20T00:30:23;100650.38;;;8.08;82.87
10115;BME280;5097;43.260;27.812;2023-03-20T00:33:09;100609.44;;;7.74;82.81
10115;BME280;5097;43.260;27.812;2023-03-20T00:35:53;100598.19;;;7.95;82.34
10115;BME280;5097;43.260;27.812;2023-03-20T00:38:37;100645.34;;;8.27;81.87
10115;BME280;5097;43.260;27.812;2023-03-20T00:41:25;100647.44;;;8.17;81.23
10115;BME280;5097;43.260;27.812;2023-03-20T00:44:19;100597.53;;;7.88;81.46
10115;BME280;5097;43.260;27.812;2023-03-20T00:47:12;100596.88;;;7.82;82.19
10115;BME280;5097;43.260;27.812;2023-03-20T00:49:59;100553.75;;;7.35;82.54
10115;BME280;5097;43.260;27.812;2023-03-20T00:52:45;100639.19;;;7.76;83.69
10115;BME280;5097;43.260;27.812;2023-03-20T00:55:29;100644.34;;;7.79;84.23
10115;BME280;5097;43.260;27.812;2023-03-20T00:58:13;100612.63;;;7.57;83.44
10115;BME280;5097;43.260;27.812;2023-03-20T01:00:57;100657.94;;;7.65;84.03
10115;BME280;5097;43.260;27.812;2023-03-20T01:03:43;100649.91;;;7.69;84.36
10115;BME280;5097;43.260;27.812;2023-03-20T01:06:29;100573.84;;;7.36;83.70
10115;BME280;5097;43.260;27.812;2023-03-20T01:09:14;100638.38;;;7.74;83.76
10115;BME280;5097;43.260;27.812;2023-03-20T01:11:58;100591.88;;;7.49;84.27
10115;BME280;5097;43.260;27.812;2023-03-20T01:14:43;100575.75;;;7.58;82.99
10115;BME280;5097;43.260;27.812;2023-03-20T01:17:28;100632.69;;;7.59;83.81
10115;BME280;5097;43.260;27.812;2023-03-20T01:20:22;100625.22;;;7.47;85.16
10115;BME280;5097;43.260;27.812;2023-03-20T01:23:07;100618.75;;;7.57;84.43
10115;BME280;5097;43.260;27.812;2023-03-20T01:25:51;100585.47;;;7.29;84.97
10115;BME280;5097;43.260;27.812;2023-03-20T01:28:35;100598.94;;;7.47;83.84
10115;BME280;5097;43.260;27.812;2023-03-20T01:31:19;100575.56;;;7.37;84.03
10115;BME280;5097;43.260;27.812;2023-03-20T01:34:03;100612.56;;;7.58;84.04
10115;BME280;5097;43.260;27.812;2023-03-20T01:36:51;100534.31;;;6.86;84.24
10115;BME280;5097;43.260;27.812;2023-03-20T01:39:36;100614.94;;;7.39;85.51
10115;BME280;5097;43.260;27.812;2023-03-20T01:42:20;100568.50;;;7.11;85.30
10115;BME280;5097;43.260;27.812;2023-03-20T01:45:14;100575.09;;;6.96;85.78
10115;BME280;5097;43.260;27.812;2023-03-20T01:47:59;100594.75;;;7.13;86.00
10115;BME280;5097;43.260;27.812;2023-03-20T01:50:43;100608.06;;;7.35;86.01
10115;BME280;5097;43.260;27.812;2023-03-20T01:53:31;100567.94;;;7.01;86.50
10115;BME280;5097;43.260;27.812;2023-03-20T01:56:17;100581.53;;;7.16;85.49
10115;BME280;5097;43.260;27.812;2023-03-20T01:59:09;100559.97;;;7.04;85.61
10115;BME280;5097;43.260;27.812;2023-03-20T02:01:53;100538.75;;;7.11;84.95
10115;BME280;5097;43.260;27.812;2023-03-20T02:04:41;100589.47;;;7.41;85.26
10115;BME280;5097;43.260;27.812;2023-03-20T02:07:32;100606.50;;;7.56;84.52
10115;BME280;5097;43.260;27.812;2023-03-20T02:10:21;100598.75;;;7.51;84.92
10115;BME280;5097;43.260;27.812;2023-03-20T02:13:20;100598.88;;;7.48;85.07
10115;BME280;5097;43.260;27.812;2023-03-20T02:16:09;100591.88;;;7.49;84.71
10115;BME280;5097;43.260;27.812;2023-03-20T02:19:20;100557.06;;;7.14;85.23
10115;BME280;5097;43.260;27.812;2023-03-20T02:22:23;100588.13;;;7.56;85.47
10115;BME280;5097;43.260;27.812;2023-03-20T02:25:27;100545.13;;;7.03;85.29
10115;BME280;5097;43.260;27.812;2023-03-20T02:35:24;100565.25;;;7.31;85.91
10115;BME280;5097;43.260;27.812;2023-03-20T02:41:38;100580.63;;;7.17;85.36
10115;BME280;5097;43.260;27.812;2023-03-20T02:44:31;100562.81;;;6.98;85.70
10115;BME280;5097;43.260;27.812;2023-03-20T02:47:21;100581.91;;;7.03;86.15
10115;BME280;5097;43.260;27.812;2023-03-20T02:50:13;100542.28;;;6.53;87.20
10115;BME280;5097;43.260;27.812;2023-03-20T02:53:06;100578.03;;;6.87;87.11
10115;BME280;5097;43.260;27.812;2023-03-20T02:56:00;100575.97;;;6.68;89.28
10115;BME280;5097;43.260;27.812;2023-03-20T02:58:53;100526.59;;;6.51;89.20
10115;BME280;5097;43.260;27.812;2023-03-20T03:01:44;100518.38;;;6.62;88.58
10115;BME280;5097;43.260;27.812;2023-03-20T03:04:34;100523.91;;;6.53;88.29
10115;BME280;5097;43.260;27.812;2023-03-20T03:07:20;100509.59;;;6.33;88.59
10115;BME280;5097;43.260;27.812;2023-03-20T03:10:08;100513.09;;;6.64;88.25
10115;BME280;5097;43.260;27.812;2023-03-20T03:12:55;100556.97;;;7.17;88.38
10115;BME280;5097;43.260;27.812;2023-03-20T03:15:44;100543.28;;;6.17;90.75
10115;BME280;5097;43.260;27.812;2023-03-20T03:18:31;100566.97;;;6.16;93.26
10115;BME280;5097;43.260;27.812;2023-03-20T03:21:19;100570.13;;;6.59;93.22
10115;BME280;5097;43.260;27.812;2023-03-20T03:24:05;100567.66;;;6.82;91.20
10115;BME280;5097;43.260;27.812;2023-03-20T03:26:49;100509.22;;;6.76;89.45
10115;BME280;5097;43.260;27.812;2023-03-20T03:29:36;100564.53;;;6.99;89.81
10115;BME280;5097;43.260;27.812;2023-03-20T03:32:26;100559.56;;;6.90;89.09
10115;BME280;5097;43.260;27.812;2023-03-20T03:35:15;100516.00;;;6.83;87.76
10115;BME280;5097;43.260;27.812;2023-03-20T03:38:02;100567.78;;;7.08;88.11
10115;BME280;5097;43.260;27.812;2023-03-20T03:40:52;100526.03;;;6.98;88.01
10115;BME280;5097;43.260;27.812;2023-03-20T03:43:44;100567.00;;;7.04;88.33
10115;BME280;5097;43.260;27.812;2023-03-20T03:46:36;100531.22;;;7.00;89.35
10115;BME280;5097;43.260;27.812;2023-03-20T03:49:29;100521.84;;;6.91;87.18
10115;BME280;5097;43.260;27.812;2023-03-20T03:52:19;100567.09;;;7.29;87.18
10115;BME280;5097;43.260;27.812;2023-03-20T03:55:07;100540.34;;;6.88;87.42
10115;BME280;5097;43.260;27.812;2023-03-20T03:58:16;100541.38;;;7.11;88.22
10115;BME280;5097;43.260;27.812;2023-03-20T04:01:03;100507.72;;;6.68;88.84
10115;BME280;5097;43.260;27.812;2023-03-20T04:03:50;100553.91;;;7.02;88.35
10115;BME280;5097;43.260;27.812;2023-03-20T04:06:37;100575.31;;;7.18;88.81
10115;BME280;5097;43.260;27.812;2023-03-20T04:09:21;100530.28;;;7.02;88.67
10115;BME280;5097;43.260;27.812;2023-03-20T04:12:27;100537.56;;;7.21;88.22
10115;BME280;5097;43.260;27.812;2023-03-20T04:15:13;100535.09;;;6.88;88.36
10115;BME280;5097;43.260;27.812;2023-03-20T04:17:58;100553.25;;;6.96;88.80
10115;BME280;5097;43.260;27.812;2023-03-20T04:20:42;100518.56;;;6.56;88.73
10115;BME280;5097;43.260;27.812;2023-03-20T04:23:28;100538.91;;;6.78;88.51
10115;BME280;5097;43.260;27.812;2023-03-20T04:26:12;100549.84;;;6.92;88.77
10115;BME280;5097;43.260;27.812;2023-03-20T04:28:56;100483.06;;;6.73;88.90
10115;BME280;5097;43.260;27.812;2023-03-20T04:32:03;100572.34;;;7.29;88.91
10115;BME280;5097;43.260;27.812;2023-03-20T04:35:09;100569.59;;;7.32;88.68
10115;BME280;5097;43.260;27.812;2023-03-20T04:38:05;100580.50;;;7.20;88.49
10115;BME280;5097;43.260;27.812;2023-03-20T04:40:52;100581.22;;;7.25;88.50
10115;BME280;5097;43.260;27.812;2023-03-20T04:43:36;100564.25;;;7.09;88.61
10115;BME280;5097;43.260;27.812;2023-03-20T04:46:21;100543.41;;;7.02;88.67
10115;BME280;5097;43.260;27.812;2023-03-20T04:49:05;100516.09;;;6.80;88.67
10115;BME280;5097;43.260;27.812;2023-03-20T04:51:50;100582.25;;;7.48;88.35
10115;BME280;5097;43.260;27.812;2023-03-20T04:54:45;100570.97;;;7.17;87.95
10115;BME280;5097;43.260;27.812;2023-03-20T04:57:30;100552.41;;;6.95;89.12
10115;BME280;5097;43.260;27.812;2023-03-20T05:00:16;100572.63;;;7.20;88.94
10115;BME280;5097;43.260;27.812;2023-03-20T05:03:00;100543.50;;;6.99;89.38
10115;BME280;5097;43.260;27.812;2023-03-20T05:05:44;100551.53;;;6.95;88.96
10115;BME280;5097;43.260;27.812;2023-03-20T05:08:28;100589.41;;;7.16;89.45
10115;BME280;5097;43.260;27.812;2023-03-20T05:11:15;100573.38;;;6.97;88.89
10115;BME280;5097;43.260;27.812;2023-03-20T05:14:20;100579.50;;;6.67;90.69
10115;BME280;5097;43.260;27.812;2023-03-20T05:17:36;100599.69;;;6.95;90.88
10115;BME280;5097;43.260;27.812;2023-03-20T05:20:29;100581.41;;;7.19;89.80
10115;BME280;5097;43.260;27.812;2023-03-20T05:23:20;100581.19;;;7.53;89.21
10115;BME280;5097;43.260;27.812;2023-03-20T05:26:27;100593.13;;;7.64;88.86
10115;BME280;5097;43.260;27.812;2023-03-20T05:29:22;100558.47;;;7.51;87.22
10115;BME280;5097;43.260;27.812;2023-03-20T05:32:29;100553.41;;;7.45;87.19
10115;BME280;5097;43.260;27.812;2023-03-20T05:35:32;100554.13;;;7.23;85.96
10115;BME280;5097;43.260;27.812;2023-03-20T05:38:32;100590.50;;;7.37;88.70
10115;BME280;5097;43.260;27.812;2023-03-20T05:41:34;100596.78;;;7.85;87.64
10115;BME280;5097;43.260;27.812;2023-03-20T05:44:40;100587.13;;;8.11;86.26
10115;BME280;5097;43.260;27.812;2023-03-20T05:47:30;100601.19;;;7.84;86.52
10115;BME280;5097;43.260;27.812;2023-03-20T05:50:52;100535.78;;;7.48;85.49
10115;BME280;5097;43.260;27.812;2023-03-20T05:53:39;100532.25;;;7.49;85.91
10115;BME280;5097;43.260;27.812;2023-03-20T05:56:50;100596.78;;;7.85;85.75
10115;BME280;5097;43.260;27.812;2023-03-20T05:59:58;100542.66;;;7.78;85.29
10115;BME280;5097;43.260;27.812;2023-03-20T06:02:55;100599.91;;;8.21;85.29
10115;BME280;5097;43.260;27.812;2023-03-20T06:05:58;100556.66;;;7.80;85.59
10115;BME280;5097;43.260;27.812;2023-03-20T06:08:42;100564.03;;;7.68;86.05
10115;BME280;5097;43.260;27.812;2023-03-20T06:11:27;100558.78;;;7.94;85.27
10115;BME280;5097;43.260;27.812;2023-03-20T06:14:11;100596.25;;;7.75;84.33
10115;BME280;5097;43.260;27.812;2023-03-20T06:16:59;100598.28;;;7.92;87.40
10115;BME280;5097;43.260;27.812;2023-03-20T06:19:44;100566.63;;;7.95;83.71
10115;BME280;5097;43.260;27.812;2023-03-20T06:22:29;100604.94;;;8.28;83.37
10115;BME280;5097;43.260;27.812;2023-03-20T06:25:14;100603.13;;;8.04;84.72
10115;BME280;5097;43.260;27.812;2023-03-20T06:27:59;100557.22;;;7.63;86.10
10115;BME280;5097;43.260;27.812;2023-03-20T06:30:44;100565.59;;;7.99;85.21
10115;BME280;5097;43.260;27.812;2023-03-20T06:33:35;100584.63;;;8.31;85.04
10115;BME280;5097;43.260;27.812;2023-03-20T06:36:19;100590.72;;;8.57;82.58
10115;BME280;5097;43.260;27.812;2023-03-20T06:39:08;100532.91;;;7.56;85.57
10115;BME280;5097;43.260;27.812;2023-03-20T06:41:53;100601.25;;;8.33;84.91
10115;BME280;5097;43.260;27.812;2023-03-20T06:44:39;100558.50;;;8.74;82.82
10115;BME280;5097;43.260;27.812;2023-03-20T06:47:55;100550.41;;;8.31;81.54
10115;BME280;5097;43.260;27.812;2023-03-20T06:50:41;100547.66;;;8.11;82.23
10115;BME280;5097;43.260;27.812;2023-03-20T06:53:29;100548.78;;;6.99;85.64
10115;BME280;5097;43.260;27.812;2023-03-20T06:56:29;100606.38;;;7.32;87.30
10115;BME280;5097;43.260;27.812;2023-03-20T06:59:14;100543.25;;;7.86;85.89
10115;BME280;5097;43.260;27.812;2023-03-20T07:01:59;100582.69;;;8.36;84.99
10115;BME280;5097;43.260;27.812;2023-03-20T07:04:43;100563.84;;;8.72;82.04
10115;BME280;5097;43.260;27.812;2023-03-20T07:07:29;100570.59;;;8.56;81.69
10115;BME280;5097;43.260;27.812;2023-03-20T07:10:13;100562.75;;;9.00;80.46
10115;BME280;5097;43.260;27.812;2023-03-20T07:13:02;100596.09;;;9.46;78.15
10115;BME280;5097;43.260;27.812;2023-03-20T07:15:47;100570.47;;;9.27;77.82
10115;BME280;5097;43.260;27.812;2023-03-20T07:18:50;100588.97;;;8.58;81.08
10115;BME280;5097;43.260;27.812;2023-03-20T07:21:35;100593.91;;;9.13;78.71
10115;BME280;5097;43.260;27.812;2023-03-20T07:24:21;100580.03;;;9.08;78.35
10115;BME280;5097;43.260;27.812;2023-03-20T07:27:05;100568.06;;;8.77;78.76
10115;BME280;5097;43.260;27.812;2023-03-20T07:29:49;100611.78;;;9.27;78.87
10115;BME280;5097;43.260;27.812;2023-03-20T07:32:34;100609.81;;;9.54;78.89
10115;BME280;5097;43.260;27.812;2023-03-20T07:35:19;100611.88;;;9.68;76.89
10115;BME280;5097;43.260;27.812;2023-03-20T07:38:03;100619.84;;;9.46;77.26
10115;BME280;5097;43.260;27.812;2023-03-20T07:40:53;100571.63;;;9.42;77.88
10115;BME280;5097;43.260;27.812;2023-03-20T07:43:38;100533.59;;;9.48;75.54
10115;BME280;5097;43.260;27.812;2023-03-20T07:46:45;100570.66;;;9.45;75.88
10115;BME280;5097;43.260;27.812;2023-03-20T07:49:30;100596.91;;;9.68;75.94
10115;BME280;5097;43.260;27.812;2023-03-20T07:52:14;100573.94;;;9.91;75.10
10115;BME280;5097;43.260;27.812;2023-03-20T07:54:59;100549.16;;;9.75;76.05
10115;BME280;5097;43.260;27.812;2023-03-20T07:57:46;100573.03;;;9.92;73.62
10115;BME280;5097;43.260;27.812;2023-03-20T08:00:32;100580.22;;;9.88;74.90
10115;BME280;5097;43.260;27.812;2023-03-20T08:03:16;100578.06;;;9.98;76.15
10115;BME280;5097;43.260;27.812;2023-03-20T08:06:00;100609.97;;;10.54;74.61
10115;BME280;5097;43.260;27.812;2023-03-20T08:08:45;100607.88;;;10.42;73.11
10115;BME280;5097;43.260;27.812;2023-03-20T08:11:33;100532.88;;;10.06;74.75
10115;BME280;5097;43.260;27.812;2023-03-20T08:14:18;100612.09;;;10.65;74.27
10115;BME280;5097;43.260;27.812;2023-03-20T08:17:03;100592.19;;;10.57;72.95
10115;BME280;5097;43.260;27.812;2023-03-20T08:19:57;100608.00;;;10.97;71.51
10115;BME280;5097;43.260;27.812;2023-03-20T08:22:43;100600.47;;;11.44;69.80
10115;BME280;5097;43.260;27.812;2023-03-20T08:25:27;100617.63;;;10.60;72.44
10115;BME280;5097;43.260;27.812;2023-03-20T08:28:15;100605.97;;;10.64;72.51
10115;BME280;5097;43.260;27.812;2023-03-20T08:31:01;100578.06;;;10.39;74.58
10115;BME280;5097;43.260;27.812;2023-03-20T08:33:46;100582.84;;;11.79;69.86
10115;BME280;5097;43.260;27.812;2023-03-20T08:36:30;100584.78;;;11.93;66.67
10115;BME280;5097;43.260;27.812;2023-03-20T08:39:14;100575.06;;;11.22;67.92
10115;BME280;5097;43.260;27.812;2023-03-20T08:41:58;100581.81;;;11.29;68.33
10115;BME280;5097;43.260;27.812;2023-03-20T08:44:43;100625.03;;;11.28;68.54
10115;BME280;5097;43.260;27.812;2023-03-20T08:47:29;100609.69;;;10.98;69.51
10115;BME280;5097;43.260;27.812;2023-03-20T08:50:13;100539.69;;;11.77;67.94
10115;BME280;5097;43.260;27.812;2023-03-20T08:52:57;100612.47;;;11.33;67.76
10115;BME280;5097;43.260;27.812;2023-03-20T08:55:46;100616.59;;;10.44;72.31
10115;BME280;5097;43.260;27.812;2023-03-20T08:58:30;100572.63;;;10.43;70.24
10115;BME280;5097;43.260;27.812;2023-03-20T09:01:14;100586.25;;;11.81;69.66
10115;BME280;5097;43.260;27.812;2023-03-20T09:04:00;100610.94;;;12.34;67.50
10115;BME280;5097;43.260;27.812;2023-03-20T09:06:44;100539.00;;;11.91;66.53
10115;BME280;5097;43.260;27.812;2023-03-20T09:09:29;100603.75;;;12.86;65.62
10115;BME280;5097;43.260;27.812;2023-03-20T09:12:14;100600.94;;;13.53;63.46
10115;BME280;5097;43.260;27.812;2023-03-20T09:14:58;100600.44;;;13.46;62.37
10115;BME280;5097;43.260;27.812;2023-03-20T09:17:44;100564.88;;;13.49;60.59
10115;BME280;5097;43.260;27.812;2023-03-20T09:20:30;100568.84;;;12.78;62.53
10115;BME280;5097;43.260;27.812;2023-03-20T09:23:14;100552.25;;;12.09;63.90
10115;BME280;5097;43.260;27.812;2023-03-20T09:25:58;100594.59;;;12.76;63.87
10115;BME280;5097;43.260;27.812;2023-03-20T09:28:42;100598.00;;;14.02;60.87
10115;BME280;5097;43.260;27.812;2023-03-20T09:31:27;100595.25;;;13.59;62.39
10115;BME280;5097;43.260;27.812;2023-03-20T09:34:11;100586.03;;;13.34;62.61
10115;BME280;5097;43.260;27.812;2023-03-20T09:36:56;100551.03;;;12.48;62.77
10115;BME280;5097;43.260;27.812;2023-03-20T09:39:40;100586.25;;;11.81;66.34
10115;BME280;5097;43.260;27.812;2023-03-20T09:42:33;100561.34;;;11.50;67.22
10115;BME280;5097;43.260;27.812;2023-03-20T09:45:29;100579.19;;;11.47;67.90
10115;BME280;5097;43.260;27.812;2023-03-20T09:48:22;100584.66;;;12.14;66.32
10115;BME280;5097;43.260;27.812;2023-03-20T09:51:13;100543.69;;;11.51;66.77
10115;BME280;5097;43.260;27.812;2023-03-20T09:54:06;100568.56;;;11.29;67.69
10115;BME280;5097;43.260;27.812;2023-03-20T09:56:55;100500.75;;;10.92;67.93
10115;BME280;5097;43.260;27.812;2023-03-20T09:59:39;100472.97;;;10.46;68.62
10115;BME280;5097;43.260;27.812;2023-03-20T10:02:33;100570.75;;;10.45;71.23
10115;BME280;5097;43.260;27.812;2023-03-20T10:05:23;100557.34;;;10.49;72.93
10115;BME280;5097;43.260;27.812;2023-03-20T10:08:12;100544.97;;;11.24;70.92
10115;BME280;5097;43.260;27.812;2023-03-20T10:11:09;100546.91;;;11.21;71.15
10115;BME280;5097;43.260;27.812;2023-03-20T10:14:06;100550.22;;;11.44;69.13
10115;BME280;5097;43.260;27.812;2023-03-20T10:17:05;100485.06;;;11.58;67.67
10115;BME280;5097;43.260;27.812;2023-03-20T10:19:56;100534.97;;;11.66;67.72
10115;BME280;5097;43.260;27.812;2023-03-20T10:22:44;100542.81;;;11.33;69.40
10115;BME280;5097;43.260;27.812;2023-03-20T10:25:31;100534.13;;;11.66;68.33
10115;BME280;5097;43.260;27.812;2023-03-20T10:28:21;100503.38;;;11.46;68.51
10115;BME280;5097;43.260;27.812;2023-03-20T10:31:21;100528.91;;;11.47;68.15
10115;BME280;5097;43.260;27.812;2023-03-20T10:34:19;100522.00;;;12.13;66.46
10115;BME280;5097;43.260;27.812;2023-03-20T10:37:18;100485.34;;;11.36;67.35
10115;BME280;5097;43.260;27.812;2023-03-20T10:40:19;100527.13;;;12.16;67.71
10115;BME280;5097;43.260;27.812;2023-03-20T10:43:13;100532.47;;;12.32;66.38
10115;BME280;5097;43.260;27.812;2023-03-20T10:46:02;100535.50;;;12.73;64.23
10115;BME280;5097;43.260;27.812;2023-03-20T10:48:52;100481.88;;;12.52;64.27
10115;BME280;5097;43.260;27.812;2023-03-20T10:51:44;100512.41;;;11.59;67.09
10115;BME280;5097;43.260;27.812;2023-03-20T10:54:31;100457.78;;;11.58;67.72
10115;BME280;5097;43.260;27.812;2023-03-20T10:57:19;100480.00;;;12.38;64.57
10115;BME280;5097;43.260;27.812;2023-03-20T11:00:06;100480.50;;;12.29;64.89
10115;BME280;5097;43.260;27.812;2023-03-20T11:02:56;100470.00;;;12.44;63.80
10115;BME280;5097;43.260;27.812;2023-03-20T11:05:39;100433.91;;;11.76;65.14
10115;BME280;5097;43.260;27.812;2023-03-20T11:08:25;100429.03;;;12.01;65.53
10115;BME280;5097;43.260;27.812;2023-03-20T11:11:13;100496.41;;;12.77;63.85
10115;BME280;5097;43.260;27.812;2023-03-20T11:14:09;100475.53;;;12.87;63.41
10115;BME280;5097;43.260;27.812;2023-03-20T11:17:01;100486.66;;;13.40;61.79
10115;BME280;5097;43.260;27.812;2023-03-20T11:19:50;100499.91;;;13.70;61.60
10115;BME280;5097;43.260;27.812;2023-03-20T11:22:35;100451.06;;;13.58;61.40
10115;BME280;5097;43.260;27.812;2023-03-20T11:25:28;100488.78;;;13.49;62.06
10115;BME280;5097;43.260;27.812;2023-03-20T11:28:20;100442.72;;;13.79;60.24
10115;BME280;5097;43.260;27.812;2023-03-20T11:31:16;100481.69;;;14.36;59.72
10115;BME280;5097;43.260;27.812;2023-03-20T11:34:10;100478.25;;;14.63;58.55
10115;BME280;5097;43.260;27.812;2023-03-20T11:36:58;100477.88;;;14.55;58.57
10115;BME280;5097;43.260;27.812;2023-03-20T11:40:00;100475.06;;;14.15;59.93
10115;BME280;5097;43.260;27.812;2023-03-20T11:42:52;100465.72;;;14.51;58.85
10115;BME280;5097;43.260;27.812;2023-03-20T11:45:38;100463.22;;;14.62;58.50
10115;BME280;5097;43.260;27.812;2023-03-20T11:48:24;100475.94;;;14.57;58.59
10115;BME280;5097;43.260;27.812;2023-03-20T11:51:10;100468.47;;;14.91;58.40
10115;BME280;5097;43.260;27.812;2023-03-20T11:54:00;100423.06;;;14.67;56.75
10115;BME280;5097;43.260;27.812;2023-03-20T11:56:54;100456.97;;;14.90;57.29
10115;BME280;5097;43.260;27.812;2023-03-20T11:59:38;100414.78;;;14.57;57.26
10115;BME280;5097;43.260;27.812;2023-03-20T12:02:24;100451.41;;;14.81;57.25
10115;BME280;5097;43.260;27.812;2023-03-20T12:05:27;100443.06;;;14.31;59.31
10115;BME280;5097;43.260;27.812;2023-03-20T12:08:14;100442.72;;;14.08;58.63
10115;BME280;5097;43.260;27.812;2023-03-20T12:11:11;100373.50;;;13.53;59.16
10115;BME280;5097;43.260;27.812;2023-03-20T12:14:00;100401.00;;;13.67;60.18
10115;BME280;5097;43.260;27.812;2023-03-20T12:16:47;100399.94;;;13.40;59.97
10115;BME280;5097;43.260;27.812;2023-03-20T12:19:33;100402.72;;;13.23;61.31
10115;BME280;5097;43.260;27.812;2023-03-20T12:22:22;100420.13;;;13.43;62.04
10115;BME280;5097;43.260;27.812;2023-03-20T12:25:17;100419.50;;;13.68;60.70
10115;BME280;5097;43.260;27.812;2023-03-20T12:28:09;100408.19;;;13.36;61.98
10115;BME280;5097;43.260;27.812;2023-03-20T12:31:04;100393.47;;;12.69;62.66
10115;BME280;5097;43.260;27.812;2023-03-20T12:33:57;100415.13;;;12.46;64.99
10115;BME280;5097;43.260;27.812;2023-03-20T12:36:45;100414.94;;;12.65;64.25
10115;BME280;5097;43.260;27.812;2023-03-20T12:39:32;100415.91;;;12.16;66.08
10115;BME280;5097;43.260;27.812;2023-03-20T12:42:25;100387.84;;;12.60;63.75
10115;BME280;5097;43.260;27.812;2023-03-20T12:45:18;100398.28;;;12.63;64.46
10115;BME280;5097;43.260;27.812;2023-03-20T12:48:15;100383.44;;;12.28;64.14
10115;BME280;5097;43.260;27.812;2023-03-20T12:51:11;100399.91;;;12.65;64.26
10115;BME280;5097;43.260;27.812;2023-03-20T12:54:07;100365.09;;;12.71;63.79
10115;BME280;5097;43.260;27.812;2023-03-20T12:57:04;100403.94;;;12.87;63.81
10115;BME280;5097;43.260;27.812;2023-03-20T13:00:17;100395.72;;;12.61;64.42
10115;BME280;5097;43.260;27.812;2023-03-20T13:03:25;100403.69;;;12.45;65.71
10115;BME280;5097;43.260;27.812;2023-03-20T13:06:14;100399.69;;;13.15;64.37
10115;BME280;5097;43.260;27.812;2023-03-20T13:09:24;100396.91;;;13.47;62.30
10115;BME280;5097;43.260;27.812;2023-03-20T13:12:21;100381.91;;;12.86;63.18
10115;BME280;5097;43.260;27.812;2023-03-20T13:15:20;100392.25;;;13.05;62.74
10115;BME280;5097;43.260;27.812;2023-03-20T13:18:11;100393.19;;;13.04;62.57
10115;BME280;5097;43.260;27.812;2023-03-20T13:21:02;100355.75;;;12.34;64.00
10115;BME280;5097;43.260;27.812;2023-03-20T13:23:55;100321.53;;;12.45;62.32
10115;BME280;5097;43.260;27.812;2023-03-20T13:26:47;100386.66;;;12.49;64.52
10115;BME280;5097;43.260;27.812;2023-03-20T13:29:42;100392.34;;;11.78;67.39
10115;BME280;5097;43.260;27.812;2023-03-20T13:32:39;100383.97;;;11.01;70.10
10115;BME280;5097;43.260;27.812;2023-03-20T13:35:33;100349.97;;;10.40;70.86
10115;BME280;5097;43.260;27.812;2023-03-20T13:38:22;100348.69;;;11.02;69.94
10115;BME280;5097;43.260;27.812;2023-03-20T13:41:08;100341.38;;;11.90;67.01
10115;BME280;5097;43.260;27.812;2023-03-20T13:43:55;100389.09;;;12.22;65.77
10115;BME280;5097;43.260;27.812;2023-03-20T13:46:46;100386.69;;;12.33;66.30
10115;BME280;5097;43.260;27.812;2023-03-20T13:49:36;100387.22;;;12.70;64.67
10115;BME280;5097;43.260;27.812;2023-03-20T13:52:22;100372.38;;;12.52;64.88
10115;BME280;5097;43.260;27.812;2023-03-20T13:55:16;100378.28;;;12.57;65.03
10115;BME280;5097;43.260;27.812;2023-03-20T13:58:16;100374.56;;;12.29;66.24
10115;BME280;5097;43.260;27.812;2023-03-20T14:01:10;100334.78;;;11.81;66.94
10115;BME280;5097;43.260;27.812;2023-03-20T14:03:59;100361.28;;;11.48;68.19
10115;BME280;5097;43.260;27.812;2023-03-20T14:06:51;100379.88;;;10.95;69.57
10115;BME280;5097;43.260;27.812;2023-03-20T14:09:36;100373.97;;;11.74;69.86
10115;BME280;5097;43.260;27.812;2023-03-20T14:12:23;100355.78;;;12.18;65.93
10115;BME280;5097;43.260;27.812;2023-03-20T14:15:10;100379.50;;;12.51;65.81
10115;BME280;5097;43.260;27.812;2023-03-20T14:17:55;100355.25;;;12.11;66.46
10115;BME280;5097;43.260;27.812;2023-03-20T14:20:40;100332.47;;;11.59;68.19
10115;BME280;5097;43.260;27.812;2023-03-20T14:23:32;100377.59;;;11.89;67.15
10115;BME280;5097;43.260;27.812;2023-03-20T14:26:20;100373.94;;;11.07;71.20
10115;BME280;5097;43.260;27.812;2023-03-20T14:29:21;100378.56;;;11.55;68.73
10115;BME280;5097;43.260;27.812;2023-03-20T14:32:30;100373.19;;;11.56;67.66
10115;BME280;5097;43.260;27.812;2023-03-20T14:35:23;100365.00;;;11.77;67.20
10115;BME280;5097;43.260;27.812;2023-03-20T14:38:17;100326.81;;;11.33;68.95
10115;BME280;5097;43.260;27.812;2023-03-20T14:41:12;100366.81;;;11.77;68.06
10115;BME280;5097;43.260;27.812;2023-03-20T14:44:11;100327.78;;;10.97;69.56
10115;BME280;5097;43.260;27.812;2023-03-20T14:47:04;100301.84;;;11.21;68.62
10115;BME280;5097;43.260;27.812;2023-03-20T14:49:55;100368.16;;;11.68;67.99
10115;BME280;5097;43.260;27.812;2023-03-20T14:52:48;100289.66;;;10.50;70.03
10115;BME280;5097;43.260;27.812;2023-03-20T14:55:51;100364.00;;;11.13;70.43
10115;BME280;5097;43.260;27.812;2023-03-20T14:58:51;100365.16;;;10.54;72.61
10115;BME280;5097;43.260;27.812;2023-03-20T15:01:47;100317.28;;;9.68;75.81
10115;BME280;5097;43.260;27.812;2023-03-20T15:04:37;100357.50;;;10.12;76.40
10115;BME280;5097;43.260;27.812;2023-03-20T15:07:23;100334.38;;;9.98;75.26